Time;durP1;ratioP1;P1;durP2;ratioP2;P2;SDS_P1;SDS_P2;PMS_P1;PMS_P2;Temp;Humidity;BMP_temperature;BMP_pressure;BME280_temperature;BME280_humidity;BME280_pressure;Samples;Min_cycle;Max_cycle;Signal;HPM_P1;HPM_P2
2022/04/16 00:02:20;;;;;;;;;;;;;;;;;;4999345;28;19921;-59
2022/04/16 00:04:47;;;;;;;;;;;;;;;;;;5005637;28;20416;-59
2022/04/16 00:07:12;;;;;;;;;;;;;;;;;;5017891;28;19913;-59
2022/04/16 00:09:37;;;;;;;;;;;;;;;;;;5000974;28;20761;-59
2022/04/16 00:12:02;;;;;;;;;;;;;;;;;;5021559;28;19932;-58
2022/04/16 00:14:28;;;;;;;;;;;;;;;;;;5008335;28;19914;-58
2022/04/16 00:16:53;;;;;;;;;;;;;;;;;;5005507;28;19909;-58
2022/04/16 00:19:19;;;;;;;;;;;;;;;;;;5013882;28;19990;-58
2022/04/16 00:21:44;;;;;;;;;;;;;;;;;;5011435;28;19925;-58
2022/04/16 00:24:09;;;;;;;;;;;;;;;;;;5015168;28;19917;-58
2022/04/16 00:26:38;;;;;;;;;;;;;;;;;;5010963;28;20362;-58
2022/04/16 00:29:04;;;;;;;;;;;;;;;;;;5010344;28;19917;-58
2022/04/16 00:31:29;;;;;;;;;;;;;;;;;;5010717;28;20385;-58
2022/04/16 00:33:55;;;;;;;;;;;;;;;;;;5036934;28;19920;-58
2022/04/16 00:36:20;;;;;;;;;;;;;;;;;;5014925;28;19987;-59
2022/04/16 00:38:45;;;;;;;;;;;;;;;;;;5006207;28;19917;-59
2022/04/16 00:41:12;;;;;;;;;;;;;;;;;;5039493;28;19921;-59
2022/04/16 00:43:37;;;;;;;;;;;;;;;;;;5014109;28;20448;-59
2022/04/16 00:46:03;;;;;;;;;;;;;;;;;;5008407;28;19918;-58
2022/04/16 00:48:28;;;;;;;;;;;;;;;;;;5015010;28;19924;-58
2022/04/16 00:50:53;;;;;;;;;;;;;;;;;;5008212;28;19913;-58
2022/04/16 00:53:18;;;;;;;;;;;;;;;;;;5007534;28;19917;-59
2022/04/16 00:55:43;;;;;;;;;;;;;;;;;;5013855;28;19917;-58
2022/04/16 00:58:09;;;;;;;;;;;;;;;;;;5007079;28;19913;-58
2022/04/16 01:00:34;;;;;;;;;;;;;;;;;;5014345;28;19928;-58
2022/04/16 01:02:59;;;;;;;;;;;;;;;;;;5007243;28;20418;-58
2022/04/16 01:05:24;;;;;;;;;;;;;;;;;;5007221;28;19999;-58
2022/04/16 01:07:53;;;;;;;;;;;;;;;;;;5013718;28;19917;-59
2022/04/16 01:10:18;;;;;;;;;;;;;;;;;;5006645;28;20344;-57
2022/04/16 01:12:43;;;;;;;;;;;;;;;;;;5010302;28;20008;-57
2022/04/16 01:15:10;;;;;;;;;;;;;;;;;;5007514;28;19919;-57
2022/04/16 01:17:35;;;;;;;;;;;;;;;;;;5004589;28;19917;-58
2022/04/16 01:20:01;;;;;;;;;;;;;;;;;;4950969;28;1794403;-58
2022/04/16 01:22:26;;;;;;;;;;;;;;;;;;5011924;28;20380;-57
2022/04/16 01:24:51;;;;;;;;;;;;;;;;;;5012116;28;20676;-59
2022/04/16 01:27:18;;;;;;;;;;;;;;;;;;5009977;28;20407;-57
2022/04/16 01:29:44;;;;;;;;;;;;;;;;;;5006024;28;19914;-56
2022/04/16 01:32:09;;;;;;;;;;;;;;;;;;5010942;28;19929;-58
2022/04/16 01:34:35;;;;;;;;;;;;;;;;;;5012501;28;19913;-59
2022/04/16 01:37:02;;;;;;;;;;;;;;;;;;5008756;28;19917;-60
2022/04/16 01:39:27;;;;;;;;;;;;;;;;;;5012414;28;19917;-59
2022/04/16 01:41:52;;;;;;;;;;;;;;;;;;5004770;28;19925;-59
2022/04/16 01:44:17;;;;;;;;;;;;;;;;;;5042305;28;19925;-59
2022/04/16 01:46:43;;;;;;;;;;;;;;;;;;5005721;28;20373;-60
2022/04/16 01:49:10;;;;;;;;;;;;;;;;;;5008603;28;20386;-58
2022/04/16 01:51:35;;;;;;;;;;;;;;;;;;5017127;28;19910;-58
2022/04/16 01:54:00;;;;;;;;;;;;;;;;;;5025201;28;19920;-59
2022/04/16 01:56:25;;;;;;;;;;;;;;;;;;5026607;28;19914;-59
2022/04/16 01:58:51;;;;;;;;;;;;;;;;;;5005156;28;19917;-58
2022/04/16 02:01:16;;;;;;;;;;;;;;;;;;5006061;28;19983;-58
2022/04/16 02:03:41;;;;;;;;;;;;;;;;;;5017634;28;19975;-58
2022/04/16 02:06:06;;;;;;;;;;;;;;;;;;5005642;28;20350;-58
2022/04/16 02:08:32;;;;;;;;;;;;;;;;;;5015782;28;19920;-58
2022/04/16 02:10:57;;;;;;;;;;;;;;;;;;5009643;28;20516;-58
2022/04/16 02:13:22;;;;;;;;;;;;;;;;;;5038271;28;19968;-59
2022/04/16 02:15:47;;;;;;;;;;;;;;;;;;5012456;28;19913;-58
2022/04/16 02:18:12;;;;;;;;;;;;;;;;;;5006229;28;19953;-58
2022/04/16 02:20:38;;;;;;;;;;;;;;;;;;5013822;28;19986;-58
2022/04/16 02:23:04;;;;;;;;;;;;;;;;;;5012883;28;19914;-59
2022/04/16 02:25:29;;;;;;;;;;;;;;;;;;5011932;28;19913;-58
2022/04/16 02:27:54;;;;;;;;;;;;;;;;;;5024857;28;19917;-58
2022/04/16 02:30:19;;;;;;;;;;;;;;;;;;5012485;28;19913;-57
2022/04/16 02:32:44;;;;;;;;;;;;;;;;;;5019429;28;19909;-57
2022/04/16 02:35:10;;;;;;;;;;;;;;;;;;5008894;28;19960;-58
2022/04/16 02:37:35;;;;;;;;;;;;;;;;;;5009673;28;20395;-57
2022/04/16 02:40:00;;;;;;;;;;;;;;;;;;5019049;28;19949;-57
2022/04/16 02:42:25;;;;;;;;;;;;;;;;;;5011377;28;19960;-58
2022/04/16 02:47:35;;;;;;;;;;;;;;;;;;5013785;28;19920;-58
2022/04/16 02:50:00;;;;;;;;;;;;;;;;;;5012279;28;19918;-57
2022/04/16 02:52:25;;;;;;;;;;;;;;;;;;5043642;28;20189;-57
2022/04/16 02:54:50;;;;;;;;;;;;;;;;;;5008990;28;19957;-58
2022/04/16 02:57:16;;;;;;;;;;;;;;;;;;5017025;28;19917;-58
2022/04/16 02:59:41;;;;;;;;;;;;;;;;;;5013272;28;19920;-57
2022/04/16 03:02:06;;;;;;;;;;;;;;;;;;5013956;28;19913;-58
2022/04/16 03:04:32;;;;;;;;;;;;;;;;;;5014781;28;19924;-58
2022/04/16 03:06:57;;;;;;;;;;;;;;;;;;5008007;28;19979;-58
2022/04/16 03:09:23;;;;;;;;;;;;;;;;;;5011953;28;20480;-58
2022/04/16 03:11:48;;;;;;;;;;;;;;;;;;5009043;28;19914;-58
2022/04/16 03:19:45;;;;;;;;;;;;;;;;;;5011014;28;19913;-58
2022/04/16 03:22:10;;;;;;;;;;;;;;;;;;5011848;28;20296;-58
2022/04/16 03:24:36;;;;;;;;;;;;;;;;;;5044792;28;19924;-58
2022/04/16 03:27:01;;;;;;;;;;;;;;;;;;5014146;28;20252;-58
2022/04/16 03:29:26;;;;;;;;;;;;;;;;;;5031325;28;19923;-59
2022/04/16 03:31:51;;;;;;;;;;;;;;;;;;5008896;28;19913;-59
2022/04/16 03:34:17;;;;;;;;;;;;;;;;;;5010022;28;20493;-59
2022/04/16 03:36:42;;;;;;;;;;;;;;;;;;5015513;28;20235;-58
2022/04/16 03:39:07;;;;;;;;;;;;;;;;;;5012224;28;19924;-59
2022/04/16 03:41:32;;;;;;;;;;;;;;;;;;5017793;28;19928;-58
2022/04/16 03:43:57;;;;;;;;;;;;;;;;;;5006359;28;19921;-58
2022/04/16 03:46:23;;;;;;;;;;;;;;;;;;5012305;28;20305;-59
2022/04/16 03:48:48;;;;;;;;;;;;;;;;;;5019147;28;20309;-58
2022/04/16 03:51:13;;;;;;;;;;;;;;;;;;5011617;28;20019;-58
2022/04/16 03:53:38;;;;;;;;;;;;;;;;;;5015951;28;20015;-63
2022/04/16 04:01:31;;;;;;;;;;;;;;;;;;5015317;28;20272;-58
2022/04/16 04:03:56;;;;;;;;;;;;;;;;;;5011786;28;19942;-58
2022/04/16 04:06:22;;;;;;;;;;;;;;;;;;5011910;28;19925;-58
2022/04/16 04:08:48;;;;;;;;;;;;;;;;;;5014123;28;19960;-58
2022/04/16 04:11:13;;;;;;;;;;;;;;;;;;5009761;28;20286;-58
2022/04/16 04:13:38;;;;;;;;;;;;;;;;;;5012060;28;19913;-58
2022/04/16 04:16:03;;;;;;;;;;;;;;;;;;5009312;28;19928;-59
2022/04/16 04:18:29;;;;;;;;;;;;;;;;;;5011325;28;20433;-58
2022/04/16 04:20:55;;;;;;;;;;;;;;;;;;5011656;28;19925;-58
2022/04/16 04:23:20;;;;;;;;;;;;;;;;;;5010590;28;19963;-58
2022/04/16 04:25:45;;;;;;;;;;;;;;;;;;5012104;28;19917;-59
2022/04/16 04:28:11;;;;;;;;;;;;;;;;;;5008052;28;19959;-58
2022/04/16 04:30:36;;;;;;;;;;;;;;;;;;5015399;28;20021;-58
2022/04/16 04:33:01;;;;;;;;;;;;;;;;;;5014861;28;19913;-59
2022/04/16 04:35:27;;;;;;;;;;;;;;;;;;5004751;28;20015;-59
2022/04/16 04:37:52;;;;;;;;;;;;;;;;;;5012685;28;19966;-58
2022/04/16 04:40:17;;;;;;;;;;;;;;;;;;5007918;28;19932;-58
2022/04/16 04:42:42;;;;;;;;;;;;;;;;;;5037009;28;20517;-57
2022/04/16 04:45:08;;;;;;;;;;;;;;;;;;5016062;28;20231;-58
2022/04/16 04:47:33;;;;;;;;;;;;;;;;;;5006254;28;19983;-58
2022/04/16 04:49:58;;;;;;;;;;;;;;;;;;5014561;28;19972;-59
2022/04/16 04:52:26;;;;;;;;;;;;;;;;;;5006331;28;19921;-57
2022/04/16 04:54:51;;;;;;;;;;;;;;;;;;5009479;28;20004;-57
2022/04/16 04:57:17;;;;;;;;;;;;;;;;;;5012533;28;19917;-59
2022/04/16 04:59:43;;;;;;;;;;;;;;;;;;5009221;28;19932;-58
2022/04/16 05:02:08;;;;;;;;;;;;;;;;;;5015937;28;19925;-60
2022/04/16 05:04:33;;;;;;;;;;;;;;;;;;5007853;28;19910;-59
2022/04/16 05:06:58;;;;;;;;;;;;;;;;;;5005709;28;19925;-57
2022/04/16 05:09:24;;;;;;;;;;;;;;;;;;5013773;28;19909;-58
2022/04/16 05:11:49;;;;;;;;;;;;;;;;;;5008169;28;19913;-58
2022/04/16 05:14:15;;;;;;;;;;;;;;;;;;5015127;28;19916;-57
2022/04/16 05:16:40;;;;;;;;;;;;;;;;;;5008785;28;20043;-57
2022/04/16 05:19:06;;;;;;;;;;;;;;;;;;5008573;28;20513;-58
2022/04/16 05:21:31;;;;;;;;;;;;;;;;;;5013436;28;20374;-60
2022/04/16 05:23:56;;;;;;;;;;;;;;;;;;5008087;28;20699;-59
2022/04/16 05:26:21;;;;;;;;;;;;;;;;;;5014392;28;19936;-58
2022/04/16 05:28:47;;;;;;;;;;;;;;;;;;5011423;28;19959;-58
2022/04/16 05:31:12;;;;;;;;;;;;;;;;;;5006616;28;20375;-57
2022/04/16 05:36:21;;;;;;;;;;;;;;;;;;5006280;28;19917;-59
2022/04/16 05:38:46;;;;;;;;;;;;;;;;;;5013421;28;19921;-58
2022/04/16 05:41:11;;;;;;;;;;;;;;;;;;5005928;28;19921;-59
2022/04/16 05:43:37;;;;;;;;;;;;;;;;;;5007078;28;20020;-58
2022/04/16 05:46:02;;;;;;;;;;;;;;;;;;5012222;28;19910;-58
2022/04/16 05:48:27;;;;;;;;;;;;;;;;;;5009512;28;20015;-58
2022/04/16 05:50:52;;;;;;;;;;;;;;;;;;5010853;28;19917;-59
2022/04/16 05:53:17;;;;;;;;;;;;;;;;;;5010961;28;19927;-58
2022/04/16 05:55:43;;;;;;;;;;;;;;;;;;5007768;28;19917;-59
2022/04/16 05:58:08;;;;;;;;;;;;;;;;;;5019299;28;20265;-59
2022/04/16 06:00:33;;;;;;;;;;;;;;;;;;5010859;28;19944;-61
2022/04/16 06:02:58;;;;;;;;;;;;;;;;;;5020883;28;19979;-59
2022/04/16 06:05:24;;;;;;;;;;;;;;;;;;5010831;28;20764;-59
2022/04/16 06:07:49;;;;;;;;;;;;;;;;;;5012028;28;19959;-59
2022/04/16 06:10:14;;;;;;;;;;;;;;;;;;5015736;28;19910;-59
2022/04/16 06:12:41;;;;;;;;;;;;;;;;;;5016838;28;19925;-58
2022/04/16 06:15:06;;;;;;;;;;;;;;;;;;5013806;28;19983;-58
2022/04/16 06:17:31;;;;;;;;;;;;;;;;;;5012514;28;20514;-59
2022/04/16 06:19:56;;;;;;;;;;;;;;;;;;5009268;28;19982;-58
2022/04/16 06:22:22;;;;;;;;;;;;;;;;;;5015897;28;19928;-59
2022/04/16 06:24:47;;;;;;;;;;;;;;;;;;5008175;28;19929;-59
2022/04/16 06:27:13;;;;;;;;;;;;;;;;;;5014842;28;19913;-59
2022/04/16 06:29:38;;;;;;;;;;;;;;;;;;5010459;28;20470;-59
2022/04/16 06:32:03;;;;;;;;;;;;;;;;;;5013982;28;19909;-59
2022/04/16 06:34:28;;;;;;;;;;;;;;;;;;5017998;28;19925;-60
2022/04/16 06:36:53;;;;;;;;;;;;;;;;;;5012107;28;20010;-60
2022/04/16 06:39:19;;;;;;;;;;;;;;;;;;5015749;28;19994;-58
2022/04/16 06:41:44;;;;;;;;;;;;;;;;;;5011785;28;20018;-59
2022/04/16 06:44:09;;;;;;;;;;;;;;;;;;5010948;28;20204;-59
2022/04/16 06:46:34;;;;;;;;;;;;;;;;;;5017242;28;20035;-60
2022/04/16 06:49:00;;;;;;;;;;;;;;;;;;5009788;28;20410;-59
2022/04/16 06:51:25;;;;;;;;;;;;;;;;;;5016206;28;20037;-58
2022/04/16 06:53:51;;;;;;;;;;;;;;;;;;5010176;28;19962;-58
2022/04/16 06:56:16;;;;;;;;;;;;;;;;;;5011313;28;19914;-59
2022/04/16 06:58:41;;;;;;;;;;;;;;;;;;5021353;28;20309;-58
2022/04/16 07:01:06;;;;;;;;;;;;;;;;;;5013796;28;20353;-58
2022/04/16 07:03:32;;;;;;;;;;;;;;;;;;5012960;28;19928;-58
2022/04/16 07:05:57;;;;;;;;;;;;;;;;;;5010940;28;19922;-58
2022/04/16 07:08:22;;;;;;;;;;;;;;;;;;5008499;28;19968;-58
2022/04/16 07:10:48;;;;;;;;;;;;;;;;;;5019519;28;19967;-59
2022/04/16 07:13:13;;;;;;;;;;;;;;;;;;5009720;28;20421;-57
2022/04/16 07:15:38;;;;;;;;;;;;;;;;;;5018414;28;19913;-59
2022/04/16 07:18:04;;;;;;;;;;;;;;;;;;5010118;28;19968;-59
2022/04/16 07:20:29;;;;;;;;;;;;;;;;;;5009208;28;19956;-59
2022/04/16 07:22:55;;;;;;;;;;;;;;;;;;5016045;28;20401;-59
2022/04/16 07:25:21;;;;;;;;;;;;;;;;;;5011093;28;20000;-60
2022/04/16 07:27:46;;;;;;;;;;;;;;;;;;5014522;28;19913;-60
2022/04/16 07:30:12;;;;;;;;;;;;;;;;;;5014642;28;19924;-60
2022/04/16 07:32:38;;;;;;;;;;;;;;;;;;5007199;28;20163;-59
2022/04/16 07:35:03;;;;;;;;;;;;;;;;;;5014814;28;19917;-59
2022/04/16 07:37:29;;;;;;;;;;;;;;;;;;5042608;28;20368;-59
2022/04/16 07:39:54;;;;;;;;;;;;;;;;;;5017199;28;19915;-59
2022/04/16 07:42:19;;;;;;;;;;;;;;;;;;5010589;28;19917;-58
2022/04/16 07:44:44;;;;;;;;;;;;;;;;;;5009071;28;19971;-58
2022/04/16 07:47:10;;;;;;;;;;;;;;;;;;5014742;28;19925;-59
2022/04/16 07:49:35;;;;;;;;;;;;;;;;;;5008218;28;20366;-58
2022/04/16 07:52:00;;;;;;;;;;;;;;;;;;5013430;28;19999;-60
2022/04/16 07:54:25;;;;;;;;;;;;;;;;;;5011422;28;19916;-59
2022/04/16 07:56:51;;;;;;;;;;;;;;;;;;5012320;28;19917;-61
2022/04/16 07:59:16;;;;;;;;;;;;;;;;;;5012690;28;19913;-58
2022/04/16 08:01:41;;;;;;;;;;;;;;;;;;5007692;28;20075;-58
2022/04/16 08:04:06;;;;;;;;;;;;;;;;;;5015285;28;20369;-58
2022/04/16 08:06:32;;;;;;;;;;;;;;;;;;5006203;28;19917;-59
2022/04/16 08:09:01;;;;;;;;;;;;;;;;;;5008289;28;20232;-60
2022/04/16 08:11:26;;;;;;;;;;;;;;;;;;5020895;28;19917;-59
2022/04/16 08:13:51;;;;;;;;;;;;;;;;;;5016100;28;19924;-59
2022/04/16 08:16:17;;;;;;;;;;;;;;;;;;5011877;28;20363;-60
2022/04/16 08:18:42;;;;;;;;;;;;;;;;;;5008416;28;19917;-59
2022/04/16 08:21:07;;;;;;;;;;;;;;;;;;5009622;28;20386;-60
2022/04/16 08:23:34;;;;;;;;;;;;;;;;;;5018821;28;19917;-59
2022/04/16 08:25:59;;;;;;;;;;;;;;;;;;5010211;28;20413;-60
2022/04/16 08:28:29;;;;;;;;;;;;;;;;;;5014152;28;20009;-59
2022/04/16 08:30:54;;;;;;;;;;;;;;;;;;5016500;28;20231;-60
2022/04/16 08:33:20;;;;;;;;;;;;;;;;;;5017426;28;20362;-59
2022/04/16 08:35:45;;;;;;;;;;;;;;;;;;5015336;28;19921;-59
2022/04/16 08:38:10;;;;;;;;;;;;;;;;;;5006393;28;19923;-59
2022/04/16 08:40:35;;;;;;;;;;;;;;;;;;5007881;28;19921;-60
2022/04/16 08:43:01;;;;;;;;;;;;;;;;;;5010376;28;19975;-60
2022/04/16 08:45:26;;;;;;;;;;;;;;;;;;5010646;28;19914;-58
2022/04/16 08:47:51;;;;;;;;;;;;;;;;;;5016236;28;19924;-59
2022/04/16 08:50:17;;;;;;;;;;;;;;;;;;5025924;28;19940;-58
2022/04/16 08:52:42;;;;;;;;;;;;;;;;;;5010485;28;19913;-59
2022/04/16 08:55:07;;;;;;;;;;;;;;;;;;5015680;28;20819;-59
2022/04/16 08:57:32;;;;;;;;;;;;;;;;;;5035865;28;19936;-60
2022/04/16 08:59:58;;;;;;;;;;;;;;;;;;5012089;28;19922;-58
2022/04/16 09:02:23;;;;;;;;;;;;;;;;;;5007188;28;19964;-58
2022/04/16 09:04:48;;;;;;;;;;;;;;;;;;5008783;28;19921;-60
2022/04/16 09:07:13;;;;;;;;;;;;;;;;;;5013080;28;19917;-60
2022/04/16 09:09:38;;;;;;;;;;;;;;;;;;5007415;28;19914;-60
2022/04/16 09:12:04;;;;;;;;;;;;;;;;;;5020360;28;19924;-60
2022/04/16 09:14:29;;;;;;;;;;;;;;;;;;5010014;28;19933;-59
2022/04/16 09:16:54;;;;;;;;;;;;;;;;;;5002898;28;19913;-60
2022/04/16 09:19:21;;;;;;;;;;;;;;;;;;5013720;28;19963;-58
2022/04/16 09:21:46;;;;;;;;;;;;;;;;;;5014717;28;19921;-60
2022/04/16 09:24:12;;;;;;;;;;;;;;;;;;5013067;28;19917;-59
2022/04/16 09:26:37;;;;;;;;;;;;;;;;;;5004413;28;19932;-60
2022/04/16 09:29:02;;;;;;;;;;;;;;;;;;5014082;28;19971;-60
2022/04/16 09:31:31;;;;;;;;;;;;;;;;;;5011235;28;19920;-60
2022/04/16 09:33:56;;;;;;;;;;;;;;;;;;5010981;28;19921;-59
2022/04/16 09:36:21;;;;;;;;;;;;;;;;;;5019870;28;20352;-61
2022/04/16 09:38:46;;;;;;;;;;;;;;;;;;5009144;28;20032;-59
2022/04/16 09:41:12;;;;;;;;;;;;;;;;;;5014176;28;19967;-61
2022/04/16 09:43:37;;;;;;;;;;;;;;;;;;5014076;28;19913;-60
2022/04/16 09:46:03;;;;;;;;;;;;;;;;;;5011414;28;19964;-60
2022/04/16 09:48:28;;;;;;;;;;;;;;;;;;5016087;28;20376;-60
2022/04/16 09:50:53;;;;;;;;;;;;;;;;;;5014560;28;19952;-59
2022/04/16 09:53:19;;;;;;;;;;;;;;;;;;5010743;28;20315;-59
2022/04/16 09:55:44;;;;;;;;;;;;;;;;;;5018215;28;20032;-58
2022/04/16 09:58:09;;;;;;;;;;;;;;;;;;5012802;28;19914;-59
2022/04/16 10:00:35;;;;;;;;;;;;;;;;;;5017202;28;19925;-59
2022/04/16 10:03:00;;;;;;;;;;;;;;;;;;5025588;28;19917;-59
2022/04/16 10:05:25;;;;;;;;;;;;;;;;;;5008513;28;19967;-59
2022/04/16 10:07:52;;;;;;;;;;;;;;;;;;5017349;28;19980;-60
2022/04/16 10:10:17;;;;;;;;;;;;;;;;;;5008949;28;20377;-60
2022/04/16 10:13:03;;;;;;;;;;;;;;;;;;5014734;28;19914;-59
2022/04/16 10:15:28;;;;;;;;;;;;;;;;;;5011213;28;19953;-61
2022/04/16 10:17:54;;;;;;;;;;;;;;;;;;5009542;28;19963;-60
2022/04/16 10:20:19;;;;;;;;;;;;;;;;;;5016905;28;19951;-59
2022/04/16 10:22:44;;;;;;;;;;;;;;;;;;5012400;28;20463;-58
2022/04/16 10:25:09;;;;;;;;;;;;;;;;;;5016390;28;20362;-60
2022/04/16 10:27:34;;;;;;;;;;;;;;;;;;5014466;28;19925;-59
2022/04/16 10:30:00;;;;;;;;;;;;;;;;;;5012263;28;20338;-60
2022/04/16 10:32:25;;;;;;;;;;;;;;;;;;5013633;28;19909;-61
2022/04/16 10:34:50;;;;;;;;;;;;;;;;;;5009368;28;19993;-60
2022/04/16 10:37:16;;;;;;;;;;;;;;;;;;5014855;28;19924;-59
2022/04/16 10:39:41;;;;;;;;;;;;;;;;;;5009581;28;19967;-60
2022/04/16 10:42:06;;;;;;;;;;;;;;;;;;5012223;28;20165;-59
2022/04/16 10:44:31;;;;;;;;;;;;;;;;;;5016092;28;19922;-59
2022/04/16 10:46:59;;;;;;;;;;;;;;;;;;5008316;28;19927;-59
2022/04/16 10:49:24;;;;;;;;;;;;;;;;;;5015234;28;19917;-60
2022/04/16 10:51:55;;;;;;;;;;;;;;;;;;5017101;28;19920;-60
2022/04/16 10:54:20;;;;;;;;;;;;;;;;;;5008150;28;19914;-59
2022/04/16 10:56:45;;;;;;;;;;;;;;;;;;5013125;28;20259;-60
2022/04/16 10:59:11;;;;;;;;;;;;;;;;;;5007725;28;19924;-61
2022/04/16 11:01:36;;;;;;;;;;;;;;;;;;5016499;28;19921;-60
2022/04/16 11:04:01;;;;;;;;;;;;;;;;;;5007262;28;19967;-59
2022/04/16 11:06:26;;;;;;;;;;;;;;;;;;5010559;28;19939;-59
2022/04/16 11:08:52;;;;;;;;;;;;;;;;;;5014647;28;19917;-60
2022/04/16 11:11:17;;;;;;;;;;;;;;;;;;5011938;28;19924;-59
2022/04/16 11:13:42;;;;;;;;;;;;;;;;;;5016499;28;20330;-59
2022/04/16 11:16:08;;;;;;;;;;;;;;;;;;5008685;28;20347;-58
2022/04/16 11:18:33;;;;;;;;;;;;;;;;;;5007224;28;20263;-61
2022/04/16 11:20:58;;;;;;;;;;;;;;;;;;5017931;28;19922;-60
2022/04/16 11:23:23;;;;;;;;;;;;;;;;;;5006867;28;19925;-59
2022/04/16 11:34:17;;;;;;;;;;;;;;;;;;5009689;28;19917;-59
2022/04/16 11:36:42;;;;;;;;;;;;;;;;;;5031895;28;19956;-59
2022/04/16 11:39:07;;;;;;;;;;;;;;;;;;5007048;28;20193;-61
2022/04/16 11:41:33;;;;;;;;;;;;;;;;;;5041710;28;19925;-60
2022/04/16 11:43:58;;;;;;;;;;;;;;;;;;5006911;28;19925;-59
2022/04/16 11:46:24;;;;;;;;;;;;;;;;;;5008481;28;19913;-61
2022/04/16 11:48:49;;;;;;;;;;;;;;;;;;4993816;28;19917;-63
2022/04/16 11:51:14;;;;;;;;;;;;;;;;;;5000708;28;20056;-60
2022/04/16 11:53:39;;;;;;;;;;;;;;;;;;5009596;28;20267;-60
2022/04/16 11:56:05;;;;;;;;;;;;;;;;;;5002475;28;19956;-61
2022/04/16 11:58:30;;;;;;;;;;;;;;;;;;4999102;28;20020;-60
2022/04/16 12:00:57;;;;;;;;;;;;;;;;;;5019444;28;19913;-62
2022/04/16 12:03:22;;;;;;;;;;;;;;;;;;5010260;28;19913;-60
2022/04/16 12:05:48;;;;;;;;;;;;;;;;;;5010167;28;19967;-60
2022/04/16 12:08:14;;;;;;;;;;;;;;;;;;5007709;28;19917;-61
2022/04/16 12:10:39;;;;;;;;;;;;;;;;;;5013070;28;19932;-59
2022/04/16 12:13:05;;;;;;;;;;;;;;;;;;5017740;28;20262;-61
2022/04/16 12:15:31;;;;;;;;;;;;;;;;;;5009518;28;19980;-60
2022/04/16 12:17:56;;;;;;;;;;;;;;;;;;5010764;28;19921;-60
2022/04/16 12:20:22;;;;;;;;;;;;;;;;;;5012993;28;19941;-60
2022/04/16 12:22:47;;;;;;;;;;;;;;;;;;5008253;28;20359;-60
2022/04/16 12:25:12;;;;;;;;;;;;;;;;;;5014646;28;19924;-62
2022/04/16 12:27:38;;;;;;;;;;;;;;;;;;5008763;28;19909;-61
2022/04/16 12:30:03;;;;;;;;;;;;;;;;;;5013745;28;19967;-61
2022/04/16 12:32:28;;;;;;;;;;;;;;;;;;5008633;28;20011;-61
2022/04/16 12:34:53;;;;;;;;;;;;;;;;;;5009504;28;19959;-62
2022/04/16 12:37:19;;;;;;;;;;;;;;;;;;5014892;28;20040;-60
2022/04/16 12:39:44;;;;;;;;;;;;;;;;;;5012645;28;19975;-61
2022/04/16 12:42:09;;;;;;;;;;;;;;;;;;5043551;28;20300;-61
2022/04/16 12:44:34;;;;;;;;;;;;;;;;;;5011788;28;19917;-61
2022/04/16 12:47:00;;;;;;;;;;;;;;;;;;5008936;28;19913;-60
2022/04/16 12:49:25;;;;;;;;;;;;;;;;;;5012890;28;19917;-61
2022/04/16 12:51:50;;;;;;;;;;;;;;;;;;5007836;28;20266;-62
2022/04/16 12:54:16;;;;;;;;;;;;;;;;;;5015539;28;20285;-61
2022/04/16 12:56:42;;;;;;;;;;;;;;;;;;5026430;28;20636;-61
2022/04/16 12:59:08;;;;;;;;;;;;;;;;;;5006732;28;20493;-60
2022/04/16 13:01:34;;;;;;;;;;;;;;;;;;5010903;28;19928;-60
2022/04/16 13:04:00;;;;;;;;;;;;;;;;;;5039033;28;20373;-61
2022/04/16 13:06:25;;;;;;;;;;;;;;;;;;5018845;28;19955;-60
2022/04/16 13:08:50;;;;;;;;;;;;;;;;;;5009022;28;19917;-61
2022/04/16 13:11:17;;;;;;;;;;;;;;;;;;5009058;28;19924;-61
2022/04/16 13:13:42;;;;;;;;;;;;;;;;;;5015300;28;20231;-62
2022/04/16 13:16:08;;;;;;;;;;;;;;;;;;5008782;28;19931;-62
2022/04/16 13:18:33;;;;;;;;;;;;;;;;;;5013856;28;20509;-62
2022/04/16 13:21:00;;;;;;;;;;;;;;;;;;5008588;28;20434;-61
2022/04/16 13:23:25;;;;;;;;;;;;;;;;;;5007966;28;19917;-62
2022/04/16 13:25:51;;;;;;;;;;;;;;;;;;5012841;28;19917;-62
2022/04/16 13:28:16;;;;;;;;;;;;;;;;;;4997841;28;20156;-62
2022/04/16 13:30:41;;;;;;;;;;;;;;;;;;5012593;28;19924;-61
2022/04/16 13:33:08;;;;;;;;;;;;;;;;;;5014166;28;19921;-61
2022/04/16 13:35:33;;;;;;;;;;;;;;;;;;5011767;28;19914;-62
2022/04/16 13:37:58;;;;;;;;;;;;;;;;;;5013012;28;19983;-62
2022/04/16 13:43:07;;;;;;;;;;;;;;;;;;5010443;28;20358;-62
2022/04/16 13:45:33;;;;;;;;;;;;;;;;;;4998740;28;19909;-61
2022/04/16 13:47:58;;;;;;;;;;;;;;;;;;5008504;28;19917;-60
2022/04/16 13:50:23;;;;;;;;;;;;;;;;;;5018899;28;19920;-61
2022/04/16 13:52:48;;;;;;;;;;;;;;;;;;5037418;28;19924;-61
2022/04/16 13:55:13;;;;;;;;;;;;;;;;;;5010350;28;19913;-61
2022/04/16 13:57:39;;;;;;;;;;;;;;;;;;5010240;28;20045;-61
2022/04/16 14:00:04;;;;;;;;;;;;;;;;;;5004646;28;19936;-60
2022/04/16 14:02:37;;;;;;;;;;;;;;;;;;5013277;28;20325;-61
2022/04/16 14:07:46;;;;;;;;;;;;;;;;;;5007420;28;20389;-61
2022/04/16 14:10:11;;;;;;;;;;;;;;;;;;5017963;28;20016;-62
2022/04/16 14:12:36;;;;;;;;;;;;;;;;;;5011758;28;19921;-62
2022/04/16 14:15:02;;;;;;;;;;;;;;;;;;5017646;28;19919;-61
2022/04/16 14:17:27;;;;;;;;;;;;;;;;;;5026829;28;19917;-61
2022/04/16 14:19:52;;;;;;;;;;;;;;;;;;5006168;28;20331;-62
2022/04/16 14:22:17;;;;;;;;;;;;;;;;;;5015130;28;19925;-62
2022/04/16 14:24:43;;;;;;;;;;;;;;;;;;5011808;28;19923;-62
2022/04/16 14:27:08;;;;;;;;;;;;;;;;;;5018455;28;19948;-63
2022/04/16 14:29:33;;;;;;;;;;;;;;;;;;5040593;28;19916;-62
2022/04/16 14:31:59;;;;;;;;;;;;;;;;;;5041204;28;19927;-62
2022/04/16 14:34:24;;;;;;;;;;;;;;;;;;5013849;28;20004;-62
2022/04/16 14:36:49;;;;;;;;;;;;;;;;;;5012040;28;20235;-62
2022/04/16 14:39:15;;;;;;;;;;;;;;;;;;5015949;28;19917;-62
2022/04/16 14:41:40;;;;;;;;;;;;;;;;;;5010549;28;19937;-61
2022/04/16 14:44:05;;;;;;;;;;;;;;;;;;5041138;28;20015;-61
2022/04/16 14:46:30;;;;;;;;;;;;;;;;;;5014652;28;19917;-62
2022/04/16 14:48:56;;;;;;;;;;;;;;;;;;5009701;28;19924;-62
2022/04/16 14:51:23;;;;;;;;;;;;;;;;;;5015632;28;19913;-62
2022/04/16 14:53:48;;;;;;;;;;;;;;;;;;5007215;28;20040;-61
2022/04/16 14:56:13;;;;;;;;;;;;;;;;;;5009408;28;20293;-61
2022/04/16 14:58:38;;;;;;;;;;;;;;;;;;5013969;28;20123;-62
2022/04/16 15:01:05;;;;;;;;;;;;;;;;;;5008557;28;19975;-63
2022/04/16 15:03:31;;;;;;;;;;;;;;;;;;5014760;28;19917;-63
2022/04/16 15:05:58;;;;;;;;;;;;;;;;;;5011656;28;20160;-61
2022/04/16 15:08:23;;;;;;;;;;;;;;;;;;5010991;28;19924;-61
2022/04/16 15:10:48;;;;;;;;;;;;;;;;;;5015465;28;19913;-61
2022/04/16 15:13:13;;;;;;;;;;;;;;;;;;5012564;28;20699;-61
2022/04/16 15:15:39;;;;;;;;;;;;;;;;;;5015926;28;20353;-61
2022/04/16 15:18:04;;;;;;;;;;;;;;;;;;5006463;28;19917;-62
2022/04/16 15:20:31;;;;;;;;;;;;;;;;;;5037473;28;19998;-62
2022/04/16 15:22:56;;;;;;;;;;;;;;;;;;5016014;28;19956;-63
2022/04/16 15:25:21;;;;;;;;;;;;;;;;;;5008681;28;20092;-63
2022/04/16 15:27:47;;;;;;;;;;;;;;;;;;5014181;28;19917;-62
2022/04/16 15:30:12;;;;;;;;;;;;;;;;;;5007034;28;19917;-62
2022/04/16 15:32:37;;;;;;;;;;;;;;;;;;5006370;28;19917;-62
2022/04/16 15:35:02;;;;;;;;;;;;;;;;;;5011640;28;20024;-63
2022/04/16 15:37:28;;;;;;;;;;;;;;;;;;5006428;28;20008;-61
2022/04/16 15:39:53;;;;;;;;;;;;;;;;;;5013488;28;19913;-61
2022/04/16 15:42:19;;;;;;;;;;;;;;;;;;5006354;28;19925;-61
2022/04/16 15:44:45;;;;;;;;;;;;;;;;;;5008062;28;19913;-62
2022/04/16 15:47:12;;;;;;;;;;;;;;;;;;5012254;28;19921;-62
2022/04/16 15:49:37;;;;;;;;;;;;;;;;;;5006570;28;19917;-62
2022/04/16 15:52:03;;;;;;;;;;;;;;;;;;5011358;28;19921;-61
2022/04/16 15:54:28;;;;;;;;;;;;;;;;;;5010553;28;19993;-61
2022/04/16 15:56:53;;;;;;;;;;;;;;;;;;5007447;28;19921;-62
2022/04/16 15:59:18;;;;;;;;;;;;;;;;;;5016134;28;20408;-61
2022/04/16 16:01:43;;;;;;;;;;;;;;;;;;5009077;28;19920;-60
2022/04/16 16:06:52;;;;;;;;;;;;;;;;;;5045095;28;20021;-61
2022/04/16 16:09:18;;;;;;;;;;;;;;;;;;5006200;28;19913;-61
2022/04/16 16:11:43;;;;;;;;;;;;;;;;;;5028866;28;19925;-61
2022/04/16 16:14:08;;;;;;;;;;;;;;;;;;5007327;28;20342;-61
2022/04/16 16:16:33;;;;;;;;;;;;;;;;;;5013816;28;19919;-60
2022/04/16 16:18:59;;;;;;;;;;;;;;;;;;5016867;28;20352;-62
2022/04/16 16:21:24;;;;;;;;;;;;;;;;;;5004774;28;20003;-62
2022/04/16 16:23:49;;;;;;;;;;;;;;;;;;5011198;28;20381;-62
2022/04/16 16:26:14;;;;;;;;;;;;;;;;;;5007484;28;20389;-62
2022/04/16 16:28:40;;;;;;;;;;;;;;;;;;5007834;28;20278;-60
2022/04/16 16:31:05;;;;;;;;;;;;;;;;;;5014929;28;20007;-59
2022/04/16 16:33:30;;;;;;;;;;;;;;;;;;5010785;28;19920;-60
2022/04/16 16:35:57;;;;;;;;;;;;;;;;;;5028157;28;19968;-60
2022/04/16 16:38:23;;;;;;;;;;;;;;;;;;5025158;28;20262;-61
2022/04/16 16:40:48;;;;;;;;;;;;;;;;;;5009318;28;20392;-60
2022/04/16 16:43:15;;;;;;;;;;;;;;;;;;5015660;28;19921;-61
2022/04/16 16:45:40;;;;;;;;;;;;;;;;;;5009301;28;19971;-63
2022/04/16 16:48:06;;;;;;;;;;;;;;;;;;5011489;28;20310;-61
2022/04/16 16:50:31;;;;;;;;;;;;;;;;;;5006905;28;20832;-63
2022/04/16 16:52:56;;;;;;;;;;;;;;;;;;5008471;28;19959;-61
2022/04/16 16:55:23;;;;;;;;;;;;;;;;;;5018619;28;19939;-61
2022/04/16 16:57:49;;;;;;;;;;;;;;;;;;5002769;28;19961;-61
2022/04/16 17:00:14;;;;;;;;;;;;;;;;;;5012027;28;19963;-61
2022/04/16 17:05:23;;;;;;;;;;;;;;;;;;5005120;28;19918;-61
2022/04/16 17:07:48;;;;;;;;;;;;;;;;;;5013439;28;19959;-61
2022/04/16 17:10:17;;;;;;;;;;;;;;;;;;5007650;28;19916;-61